Green Bush, Kansas
Current Conditions -  °F | °C
As of 11:35 AM on Monday 22 Dec 2014 (Local Time) from KPTS Reporting Station
Haze Haze  
Wind Chill: 50°   Ceiling: 400
Heat Index: 50°   Visibility: 3mi
Dew Point: 50°   Wind: 8mph
Humidity: 100%   Direction: 200°SSW
Pressure: 29.54"   Gusts: NA
Location:  37.5057°N, 94.9338°W
Report Text: KPTS 221735Z AUTO 20007KT 3SM BR OVC004 10/10 A2954 RMK AO2 T01010102
Loading
Personal Weather Stations






























Interactive Weather Map New forecast layout! Learn more

10-Day Weather Forecast

Advertisements
Track Severe Weather on mobile